sensor_id;sensor_type;location;lat;lon;timestamp;P1;durP1;ratioP1;P2;durP2;ratioP2
42876;SDS011;42341;40.498;72.818;2023-01-16T00:00:08;114.60;;;45.53;;
42876;SDS011;42341;40.498;72.818;2023-01-16T00:02:34;149.45;;;50.25;;
42876;SDS011;42341;40.498;72.818;2023-01-16T00:05:01;134.38;;;48.80;;
42876;SDS011;42341;40.498;72.818;2023-01-16T00:07:27;109.20;;;39.33;;
42876;SDS011;42341;40.498;72.818;2023-01-16T00:09:53;96.38;;;31.42;;
42876;SDS011;42341;40.498;72.818;2023-01-16T00:12:19;81.47;;;26.95;;
42876;SDS011;42341;40.498;72.818;2023-01-16T00:14:45;61.83;;;22.92;;
42876;SDS011;42341;40.498;72.818;2023-01-16T00:17:12;54.60;;;20.95;;
42876;SDS011;42341;40.498;72.818;2023-01-16T00:19:38;69.15;;;20.88;;
42876;SDS011;42341;40.498;72.818;2023-01-16T00:22:04;61.30;;;19.80;;
42876;SDS011;42341;40.498;72.818;2023-01-16T00:24:30;57.78;;;19.67;;
42876;SDS011;42341;40.498;72.818;2023-01-16T00:26:56;54.42;;;20.02;;
42876;SDS011;42341;40.498;72.818;2023-01-16T00:29:22;73.43;;;22.73;;
42876;SDS011;42341;40.498;72.818;2023-01-16T00:31:49;64.97;;;20.75;;
42876;SDS011;42341;40.498;72.818;2023-01-16T00:34:15;69.97;;;22.45;;
42876;SDS011;42341;40.498;72.818;2023-01-16T00:36:41;88.88;;;25.17;;
42876;SDS011;42341;40.498;72.818;2023-01-16T00:39:07;70.38;;;23.10;;
42876;SDS011;42341;40.498;72.818;2023-01-16T00:41:33;62.17;;;22.45;;
42876;SDS011;42341;40.498;72.818;2023-01-16T00:43:59;81.57;;;26.30;;
42876;SDS011;42341;40.498;72.818;2023-01-16T00:46:26;69.78;;;21.90;;
42876;SDS011;42341;40.498;72.818;2023-01-16T00:48:54;58.88;;;20.02;;
42876;SDS011;42341;40.498;72.818;2023-01-16T00:51:21;66.43;;;21.10;;
42876;SDS011;42341;40.498;72.818;2023-01-16T00:53:47;64.38;;;25.40;;
42876;SDS011;42341;40.498;72.818;2023-01-16T00:56:14;86.35;;;28.75;;
42876;SDS011;42341;40.498;72.818;2023-01-16T00:58:40;85.50;;;27.88;;
42876;SDS011;42341;40.498;72.818;2023-01-16T01:01:06;83.65;;;30.05;;
42876;SDS011;42341;40.498;72.818;2023-01-16T01:03:32;93.68;;;30.80;;
42876;SDS011;42341;40.498;72.818;2023-01-16T01:05:58;75.15;;;26.50;;
42876;SDS011;42341;40.498;72.818;2023-01-16T01:08:24;90.15;;;31.08;;
42876;SDS011;42341;40.498;72.818;2023-01-16T01:10:51;124.85;;;49.15;;
42876;SDS011;42341;40.498;72.818;2023-01-16T01:13:17;83.20;;;37.33;;
42876;SDS011;42341;40.498;72.818;2023-01-16T01:15:43;105.30;;;45.92;;
42876;SDS011;42341;40.498;72.818;2023-01-16T01:18:09;84.80;;;37.95;;
42876;SDS011;42341;40.498;72.818;2023-01-16T01:20:35;89.45;;;39.17;;
42876;SDS011;42341;40.498;72.818;2023-01-16T01:23:01;94.22;;;35.90;;
42876;SDS011;42341;40.498;72.818;2023-01-16T01:25:28;84.22;;;29.42;;
42876;SDS011;42341;40.498;72.818;2023-01-16T01:27:54;85.03;;;31.67;;
42876;SDS011;42341;40.498;72.818;2023-01-16T01:30:20;98.65;;;35.85;;
42876;SDS011;42341;40.498;72.818;2023-01-16T01:32:47;110.88;;;41.03;;
42876;SDS011;42341;40.498;72.818;2023-01-16T01:35:13;112.70;;;40.05;;
42876;SDS011;42341;40.498;72.818;2023-01-16T01:37:39;114.05;;;43.03;;
42876;SDS011;42341;40.498;72.818;2023-01-16T01:40:05;143.50;;;60.17;;
42876;SDS011;42341;40.498;72.818;2023-01-16T01:42:38;129.45;;;49.85;;
42876;SDS011;42341;40.498;72.818;2023-01-16T01:45:24;106.65;;;40.95;;
42876;SDS011;42341;40.498;72.818;2023-01-16T01:53:19;88.63;;;33.30;;
42876;SDS011;42341;40.498;72.818;2023-01-16T01:55:47;93.82;;;36.22;;
42876;SDS011;42341;40.498;72.818;2023-01-16T01:58:14;107.90;;;35.88;;
42876;SDS011;42341;40.498;72.818;2023-01-16T02:00:47;108.28;;;40.28;;
42876;SDS011;42341;40.498;72.818;2023-01-16T02:03:15;105.35;;;41.83;;
42876;SDS011;42341;40.498;72.818;2023-01-16T02:05:44;90.20;;;30.52;;
42876;SDS011;42341;40.498;72.818;2023-01-16T02:08:15;74.97;;;25.02;;
42876;SDS011;42341;40.498;72.818;2023-01-16T02:10:43;88.15;;;33.55;;
42876;SDS011;42341;40.498;72.818;2023-01-16T02:13:11;70.70;;;28.80;;
42876;SDS011;42341;40.498;72.818;2023-01-16T02:15:37;86.07;;;29.73;;
42876;SDS011;42341;40.498;72.818;2023-01-16T02:18:28;182.13;;;69.35;;
42876;SDS011;42341;40.498;72.818;2023-01-16T02:26:46;127.82;;;42.90;;
42876;SDS011;42341;40.498;72.818;2023-01-16T02:31:50;121.03;;;43.40;;
42876;SDS011;42341;40.498;72.818;2023-01-16T02:34:29;104.63;;;39.03;;
42876;SDS011;42341;40.498;72.818;2023-01-16T02:44:46;73.53;;;25.80;;
42876;SDS011;42341;40.498;72.818;2023-01-16T02:47:27;74.30;;;27.20;;
42876;SDS011;42341;40.498;72.818;2023-01-16T02:52:52;75.95;;;29.15;;
42876;SDS011;42341;40.498;72.818;2023-01-16T02:55:27;72.97;;;26.38;;
42876;SDS011;42341;40.498;72.818;2023-01-16T02:57:56;71.65;;;28.80;;
42876;SDS011;42341;40.498;72.818;2023-01-16T03:00:23;102.30;;;35.78;;
42876;SDS011;42341;40.498;72.818;2023-01-16T03:02:50;101.97;;;39.33;;
42876;SDS011;42341;40.498;72.818;2023-01-16T03:05:16;97.20;;;35.40;;
42876;SDS011;42341;40.498;72.818;2023-01-16T03:31:34;81.75;;;32.05;;
42876;SDS011;42341;40.498;72.818;2023-01-16T03:36:43;59.17;;;22.73;;
42876;SDS011;42341;40.498;72.818;2023-01-16T03:39:13;55.38;;;23.27;;
42876;SDS011;42341;40.498;72.818;2023-01-16T03:41:42;66.85;;;25.27;;
42876;SDS011;42341;40.498;72.818;2023-01-16T03:44:12;81.50;;;29.58;;
42876;SDS011;42341;40.498;72.818;2023-01-16T03:46:41;86.82;;;33.28;;
42876;SDS011;42341;40.498;72.818;2023-01-16T03:49:12;79.07;;;30.58;;
42876;SDS011;42341;40.498;72.818;2023-01-16T03:56:34;76.45;;;28.83;;
42876;SDS011;42341;40.498;72.818;2023-01-16T03:59:01;64.30;;;27.52;;
42876;SDS011;42341;40.498;72.818;2023-01-16T04:01:36;78.55;;;30.95;;
42876;SDS011;42341;40.498;72.818;2023-01-16T04:04:04;111.38;;;41.75;;
42876;SDS011;42341;40.498;72.818;2023-01-16T04:09:18;287.65;;;118.18;;
42876;SDS011;42341;40.498;72.818;2023-01-16T04:11:47;114.25;;;46.85;;
42876;SDS011;42341;40.498;72.818;2023-01-16T04:14:15;93.45;;;40.17;;
42876;SDS011;42341;40.498;72.818;2023-01-16T04:16:42;76.97;;;33.97;;
42876;SDS011;42341;40.498;72.818;2023-01-16T04:19:11;88.63;;;33.40;;
42876;SDS011;42341;40.498;72.818;2023-01-16T04:21:41;101.35;;;37.97;;
42876;SDS011;42341;40.498;72.818;2023-01-16T04:24:08;197.40;;;62.53;;
42876;SDS011;42341;40.498;72.818;2023-01-16T04:26:34;168.27;;;51.58;;
42876;SDS011;42341;40.498;72.818;2023-01-16T04:29:01;76.18;;;30.20;;
42876;SDS011;42341;40.498;72.818;2023-01-16T04:31:27;129.57;;;41.97;;
42876;SDS011;42341;40.498;72.818;2023-01-16T04:33:53;204.57;;;70.80;;
42876;SDS011;42341;40.498;72.818;2023-01-16T04:36:20;105.45;;;39.30;;
42876;SDS011;42341;40.498;72.818;2023-01-16T04:38:46;73.85;;;28.55;;
42876;SDS011;42341;40.498;72.818;2023-01-16T04:41:12;69.53;;;23.30;;
42876;SDS011;42341;40.498;72.818;2023-01-16T04:43:58;84.20;;;31.52;;
42876;SDS011;42341;40.498;72.818;2023-01-16T04:46:25;76.78;;;31.17;;
42876;SDS011;42341;40.498;72.818;2023-01-16T04:48:51;85.55;;;32.83;;
42876;SDS011;42341;40.498;72.818;2023-01-16T04:51:18;72.13;;;28.50;;
42876;SDS011;42341;40.498;72.818;2023-01-16T04:53:44;92.25;;;34.00;;
42876;SDS011;42341;40.498;72.818;2023-01-16T04:56:10;147.15;;;50.78;;
42876;SDS011;42341;40.498;72.818;2023-01-16T04:58:36;108.00;;;42.45;;
42876;SDS011;42341;40.498;72.818;2023-01-16T05:01:02;162.45;;;53.25;;
42876;SDS011;42341;40.498;72.818;2023-01-16T05:03:28;148.15;;;53.13;;
42876;SDS011;42341;40.498;72.818;2023-01-16T05:30:03;209.77;;;97.72;;
42876;SDS011;42341;40.498;72.818;2023-01-16T05:32:30;114.38;;;54.08;;
42876;SDS011;42341;40.498;72.818;2023-01-16T05:34:56;108.88;;;53.50;;
42876;SDS011;42341;40.498;72.818;2023-01-16T05:37:25;137.00;;;66.72;;
42876;SDS011;42341;40.498;72.818;2023-01-16T05:39:52;127.85;;;59.97;;
42876;SDS011;42341;40.498;72.818;2023-01-16T05:42:25;107.38;;;49.03;;
42876;SDS011;42341;40.498;72.818;2023-01-16T05:44:53;118.40;;;50.80;;
42876;SDS011;42341;40.498;72.818;2023-01-16T05:47:20;76.32;;;38.65;;
42876;SDS011;42341;40.498;72.818;2023-01-16T05:49:47;109.97;;;50.13;;
42876;SDS011;42341;40.498;72.818;2023-01-16T05:52:14;133.23;;;62.80;;
42876;SDS011;42341;40.498;72.818;2023-01-16T05:54:41;76.72;;;35.00;;
42876;SDS011;42341;40.498;72.818;2023-01-16T05:57:07;59.58;;;27.92;;
42876;SDS011;42341;40.498;72.818;2023-01-16T05:59:34;69.75;;;39.38;;
42876;SDS011;42341;40.498;72.818;2023-01-16T06:02:01;87.70;;;45.03;;
42876;SDS011;42341;40.498;72.818;2023-01-16T06:04:28;68.03;;;35.15;;
42876;SDS011;42341;40.498;72.818;2023-01-16T06:06:54;71.15;;;37.22;;
42876;SDS011;42341;40.498;72.818;2023-01-16T06:09:21;75.93;;;35.80;;
42876;SDS011;42341;40.498;72.818;2023-01-16T06:11:47;88.00;;;46.83;;
42876;SDS011;42341;40.498;72.818;2023-01-16T06:14:14;82.75;;;43.85;;
42876;SDS011;42341;40.498;72.818;2023-01-16T06:16:41;99.47;;;45.58;;
42876;SDS011;42341;40.498;72.818;2023-01-16T06:19:07;95.32;;;43.38;;
42876;SDS011;42341;40.498;72.818;2023-01-16T06:21:34;91.25;;;43.53;;
42876;SDS011;42341;40.498;72.818;2023-01-16T06:24:01;124.05;;;57.97;;
42876;SDS011;42341;40.498;72.818;2023-01-16T06:26:27;149.63;;;72.57;;
42876;SDS011;42341;40.498;72.818;2023-01-16T06:28:54;144.77;;;72.00;;
42876;SDS011;42341;40.498;72.818;2023-01-16T06:31:21;141.38;;;70.93;;
42876;SDS011;42341;40.498;72.818;2023-01-16T06:33:47;145.90;;;70.82;;
42876;SDS011;42341;40.498;72.818;2023-01-16T06:36:14;141.88;;;65.45;;
42876;SDS011;42341;40.498;72.818;2023-01-16T06:38:40;152.80;;;72.90;;
42876;SDS011;42341;40.498;72.818;2023-01-16T06:41:07;154.18;;;70.97;;
42876;SDS011;42341;40.498;72.818;2023-01-16T06:43:33;199.23;;;86.50;;
42876;SDS011;42341;40.498;72.818;2023-01-16T06:45:59;154.20;;;72.18;;
42876;SDS011;42341;40.498;72.818;2023-01-16T06:48:26;111.57;;;54.35;;
42876;SDS011;42341;40.498;72.818;2023-01-16T06:50:52;130.95;;;56.30;;
42876;SDS011;42341;40.498;72.818;2023-01-16T06:53:19;133.35;;;58.65;;
42876;SDS011;42341;40.498;72.818;2023-01-16T06:55:47;135.80;;;63.33;;
42876;SDS011;42341;40.498;72.818;2023-01-16T06:58:14;131.45;;;60.40;;
42876;SDS011;42341;40.498;72.818;2023-01-16T07:00:40;131.45;;;67.90;;
42876;SDS011;42341;40.498;72.818;2023-01-16T07:03:07;167.75;;;83.07;;
42876;SDS011;42341;40.498;72.818;2023-01-16T07:05:33;138.93;;;69.00;;
42876;SDS011;42341;40.498;72.818;2023-01-16T07:07:59;191.60;;;96.90;;
42876;SDS011;42341;40.498;72.818;2023-01-16T07:10:27;185.98;;;97.88;;
42876;SDS011;42341;40.498;72.818;2023-01-16T07:12:53;196.90;;;101.03;;
42876;SDS011;42341;40.498;72.818;2023-01-16T07:15:20;185.38;;;93.15;;
42876;SDS011;42341;40.498;72.818;2023-01-16T07:18:05;188.32;;;96.65;;
42876;SDS011;42341;40.498;72.818;2023-01-16T07:20:57;181.32;;;93.50;;
42876;SDS011;42341;40.498;72.818;2023-01-16T07:23:46;182.52;;;90.85;;
42876;SDS011;42341;40.498;72.818;2023-01-16T07:26:14;180.85;;;92.35;;
42876;SDS011;42341;40.498;72.818;2023-01-16T07:28:44;180.80;;;92.05;;
42876;SDS011;42341;40.498;72.818;2023-01-16T07:31:10;179.02;;;89.15;;
42876;SDS011;42341;40.498;72.818;2023-01-16T07:33:38;179.65;;;86.20;;
42876;SDS011;42341;40.498;72.818;2023-01-16T07:36:05;178.38;;;89.00;;
42876;SDS011;42341;40.498;72.818;2023-01-16T07:38:31;196.07;;;88.32;;
42876;SDS011;42341;40.498;72.818;2023-01-16T07:40:57;173.52;;;84.43;;
42876;SDS011;42341;40.498;72.818;2023-01-16T07:43:24;175.60;;;86.25;;
42876;SDS011;42341;40.498;72.818;2023-01-16T07:45:50;171.93;;;84.43;;
42876;SDS011;42341;40.498;72.818;2023-01-16T07:48:20;284.13;;;132.60;;
42876;SDS011;42341;40.498;72.818;2023-01-16T07:50:53;251.50;;;114.55;;
42876;SDS011;42341;40.498;72.818;2023-01-16T07:53:20;216.68;;;96.47;;
42876;SDS011;42341;40.498;72.818;2023-01-16T07:55:49;242.30;;;101.13;;
42876;SDS011;42341;40.498;72.818;2023-01-16T07:58:16;199.00;;;84.75;;
42876;SDS011;42341;40.498;72.818;2023-01-16T08:00:42;229.05;;;91.07;;
42876;SDS011;42341;40.498;72.818;2023-01-16T08:03:10;206.65;;;96.97;;
42876;SDS011;42341;40.498;72.818;2023-01-16T08:05:43;211.02;;;100.85;;
42876;SDS011;42341;40.498;72.818;2023-01-16T08:08:10;216.00;;;100.28;;
42876;SDS011;42341;40.498;72.818;2023-01-16T08:10:36;232.18;;;104.30;;
42876;SDS011;42341;40.498;72.818;2023-01-16T08:24:44;210.25;;;96.57;;
42876;SDS011;42341;40.498;72.818;2023-01-16T08:27:10;167.45;;;77.07;;
42876;SDS011;42341;40.498;72.818;2023-01-16T08:29:36;150.35;;;70.78;;
42876;SDS011;42341;40.498;72.818;2023-01-16T08:32:03;173.02;;;77.65;;
42876;SDS011;42341;40.498;72.818;2023-01-16T08:34:29;188.48;;;79.75;;
42876;SDS011;42341;40.498;72.818;2023-01-16T08:36:56;168.98;;;71.65;;
42876;SDS011;42341;40.498;72.818;2023-01-16T08:39:22;147.82;;;61.25;;
42876;SDS011;42341;40.498;72.818;2023-01-16T08:41:50;146.90;;;60.85;;
42876;SDS011;42341;40.498;72.818;2023-01-16T08:44:35;149.90;;;59.58;;
42876;SDS011;42341;40.498;72.818;2023-01-16T08:47:22;129.40;;;56.30;;
42876;SDS011;42341;40.498;72.818;2023-01-16T08:50:14;135.73;;;54.83;;
42876;SDS011;42341;40.498;72.818;2023-01-16T08:53:01;130.40;;;53.75;;
42876;SDS011;42341;40.498;72.818;2023-01-16T08:55:27;131.73;;;54.08;;
42876;SDS011;42341;40.498;72.818;2023-01-16T08:57:53;130.73;;;56.70;;
42876;SDS011;42341;40.498;72.818;2023-01-16T09:00:22;123.60;;;56.03;;
42876;SDS011;42341;40.498;72.818;2023-01-16T09:02:48;116.60;;;53.38;;
42876;SDS011;42341;40.498;72.818;2023-01-16T09:05:14;117.53;;;47.47;;
42876;SDS011;42341;40.498;72.818;2023-01-16T09:07:40;113.50;;;48.22;;
42876;SDS011;42341;40.498;72.818;2023-01-16T09:10:07;129.18;;;53.20;;
42876;SDS011;42341;40.498;72.818;2023-01-16T09:12:33;127.50;;;51.70;;
42876;SDS011;42341;40.498;72.818;2023-01-16T09:15:18;106.45;;;46.13;;
42876;SDS011;42341;40.498;72.818;2023-01-16T09:17:44;114.45;;;45.90;;
42876;SDS011;42341;40.498;72.818;2023-01-16T09:20:10;124.78;;;53.97;;
42876;SDS011;42341;40.498;72.818;2023-01-16T09:22:37;126.85;;;54.97;;
42876;SDS011;42341;40.498;72.818;2023-01-16T09:25:03;113.53;;;48.45;;
42876;SDS011;42341;40.498;72.818;2023-01-16T09:27:29;115.00;;;49.83;;
42876;SDS011;42341;40.498;72.818;2023-01-16T09:29:56;116.85;;;50.53;;
42876;SDS011;42341;40.498;72.818;2023-01-16T09:32:23;123.35;;;50.80;;
42876;SDS011;42341;40.498;72.818;2023-01-16T09:34:49;133.77;;;52.70;;
42876;SDS011;42341;40.498;72.818;2023-01-16T09:37:15;125.50;;;53.22;;
42876;SDS011;42341;40.498;72.818;2023-01-16T09:39:42;140.90;;;56.03;;
42876;SDS011;42341;40.498;72.818;2023-01-16T09:45:06;159.00;;;65.15;;
42876;SDS011;42341;40.498;72.818;2023-01-16T09:47:33;133.32;;;56.50;;
42876;SDS011;42341;40.498;72.818;2023-01-16T09:52:31;135.57;;;56.95;;
42876;SDS011;42341;40.498;72.818;2023-01-16T09:55:19;255.60;;;113.97;;
42876;SDS011;42341;40.498;72.818;2023-01-16T09:58:07;299.23;;;138.95;;
42876;SDS011;42341;40.498;72.818;2023-01-16T10:00:55;303.13;;;145.27;;
42876;SDS011;42341;40.498;72.818;2023-01-16T10:03:22;307.30;;;149.98;;
42876;SDS011;42341;40.498;72.818;2023-01-16T10:05:49;332.65;;;165.10;;
42876;SDS011;42341;40.498;72.818;2023-01-16T10:10:54;339.52;;;163.52;;
42876;SDS011;42341;40.498;72.818;2023-01-16T10:18:40;352.48;;;169.32;;
42876;SDS011;42341;40.498;72.818;2023-01-16T10:21:22;343.05;;;167.50;;
42876;SDS011;42341;40.498;72.818;2023-01-16T10:23:57;347.13;;;166.80;;
42876;SDS011;42341;40.498;72.818;2023-01-16T10:26:48;355.05;;;175.30;;
42876;SDS011;42341;40.498;72.818;2023-01-16T10:36:57;348.35;;;165.98;;
42876;SDS011;42341;40.498;72.818;2023-01-16T10:39:26;336.80;;;157.52;;
42876;SDS011;42341;40.498;72.818;2023-01-16T10:41:57;349.35;;;163.82;;
42876;SDS011;42341;40.498;72.818;2023-01-16T10:44:52;354.08;;;161.80;;
42876;SDS011;42341;40.498;72.818;2023-01-16T10:47:40;327.55;;;149.98;;
42876;SDS011;42341;40.498;72.818;2023-01-16T10:50:25;337.00;;;152.32;;
42876;SDS011;42341;40.498;72.818;2023-01-16T10:52:51;315.70;;;146.88;;
42876;SDS011;42341;40.498;72.818;2023-01-16T10:55:18;306.90;;;144.25;;
42876;SDS011;42341;40.498;72.818;2023-01-16T10:57:49;320.92;;;145.60;;
42876;SDS011;42341;40.498;72.818;2023-01-16T11:00:23;307.25;;;139.13;;
42876;SDS011;42341;40.498;72.818;2023-01-16T11:02:54;289.40;;;133.73;;
42876;SDS011;42341;40.498;72.818;2023-01-16T11:05:30;316.83;;;148.65;;
42876;SDS011;42341;40.498;72.818;2023-01-16T11:08:06;301.27;;;140.68;;
42876;SDS011;42341;40.498;72.818;2023-01-16T11:10:35;325.25;;;153.68;;
42876;SDS011;42341;40.498;72.818;2023-01-16T11:13:01;319.88;;;149.63;;
42876;SDS011;42341;40.498;72.818;2023-01-16T11:16:04;334.70;;;154.30;;
42876;SDS011;42341;40.498;72.818;2023-01-16T11:18:49;320.27;;;148.38;;
42876;SDS011;42341;40.498;72.818;2023-01-16T11:21:22;332.90;;;163.20;;
42876;SDS011;42341;40.498;72.818;2023-01-16T11:23:59;286.65;;;134.15;;
42876;SDS011;42341;40.498;72.818;2023-01-16T11:26:26;297.67;;;132.07;;
42876;SDS011;42341;40.498;72.818;2023-01-16T11:28:53;275.65;;;129.73;;
42876;SDS011;42341;40.498;72.818;2023-01-16T11:31:23;287.92;;;135.60;;
42876;SDS011;42341;40.498;72.818;2023-01-16T11:33:57;320.42;;;142.48;;
42876;SDS011;42341;40.498;72.818;2023-01-16T11:36:26;425.70;;;174.77;;
42876;SDS011;42341;40.498;72.818;2023-01-16T11:38:53;418.58;;;172.82;;
42876;SDS011;42341;40.498;72.818;2023-01-16T11:41:20;388.23;;;166.38;;
42876;SDS011;42341;40.498;72.818;2023-01-16T11:46:55;444.98;;;219.57;;
42876;SDS011;42341;40.498;72.818;2023-01-16T11:49:24;451.45;;;227.68;;
42876;SDS011;42341;40.498;72.818;2023-01-16T11:51:53;468.42;;;227.85;;
42876;SDS011;42341;40.498;72.818;2023-01-16T11:54:27;462.92;;;219.80;;
42876;SDS011;42341;40.498;72.818;2023-01-16T11:59:31;520.25;;;237.07;;
42876;SDS011;42341;40.498;72.818;2023-01-16T12:05:00;495.42;;;237.18;;
42876;SDS011;42341;40.498;72.818;2023-01-16T12:13:19;489.85;;;236.75;;
42876;SDS011;42341;40.498;72.818;2023-01-16T12:21:27;278.98;;;134.52;;
42876;SDS011;42341;40.498;72.818;2023-01-16T12:26:34;208.80;;;95.45;;
42876;SDS011;42341;40.498;72.818;2023-01-16T12:34:32;206.90;;;87.95;;
42876;SDS011;42341;40.498;72.818;2023-01-16T12:53:00;145.50;;;61.90;;
42876;SDS011;42341;40.498;72.818;2023-01-16T12:55:40;130.73;;;52.80;;
42876;SDS011;42341;40.498;72.818;2023-01-16T12:58:15;141.02;;;59.17;;
42876;SDS011;42341;40.498;72.818;2023-01-16T13:03:43;125.18;;;48.67;;
42876;SDS011;42341;40.498;72.818;2023-01-16T13:06:04;132.88;;;55.08;;
42876;SDS011;42341;40.498;72.818;2023-01-16T13:10:59;120.03;;;55.05;;
42876;SDS011;42341;40.498;72.818;2023-01-16T13:13:49;163.23;;;66.30;;
42876;SDS011;42341;40.498;72.818;2023-01-16T13:18:43;165.10;;;68.05;;
42876;SDS011;42341;40.498;72.818;2023-01-16T13:21:12;166.05;;;72.47;;
42876;SDS011;42341;40.498;72.818;2023-01-16T13:23:45;167.65;;;77.25;;
42876;SDS011;42341;40.498;72.818;2023-01-16T13:26:14;191.02;;;83.57;;
42876;SDS011;42341;40.498;72.818;2023-01-16T13:29:03;189.63;;;82.32;;
42876;SDS011;42341;40.498;72.818;2023-01-16T13:31:36;257.58;;;115.45;;
42876;SDS011;42341;40.498;72.818;2023-01-16T13:34:09;237.57;;;111.03;;
42876;SDS011;42341;40.498;72.818;2023-01-16T13:36:44;244.27;;;114.32;;
42876;SDS011;42341;40.498;72.818;2023-01-16T13:41:46;224.50;;;97.80;;
42876;SDS011;42341;40.498;72.818;2023-01-16T13:47:29;221.82;;;94.65;;
42876;SDS011;42341;40.498;72.818;2023-01-16T13:50:02;223.48;;;97.25;;
42876;SDS011;42341;40.498;72.818;2023-01-16T13:52:28;155.18;;;66.35;;
42876;SDS011;42341;40.498;72.818;2023-01-16T13:54:58;163.93;;;71.68;;
42876;SDS011;42341;40.498;72.818;2023-01-16T13:57:25;189.80;;;79.20;;
42876;SDS011;42341;40.498;72.818;2023-01-16T14:10:45;334.40;;;127.45;;
42876;SDS011;42341;40.498;72.818;2023-01-16T14:15:48;313.55;;;130.93;;
42876;SDS011;42341;40.498;72.818;2023-01-16T16:07:06;129.45;;;53.75;;
42876;SDS011;42341;40.498;72.818;2023-01-16T16:09:33;147.45;;;58.53;;
42876;SDS011;42341;40.498;72.818;2023-01-16T16:12:01;132.75;;;52.67;;
42876;SDS011;42341;40.498;72.818;2023-01-16T16:14:34;115.60;;;46.67;;
42876;SDS011;42341;40.498;72.818;2023-01-16T16:17:23;133.18;;;55.45;;
42876;SDS011;42341;40.498;72.818;2023-01-16T16:22:54;111.40;;;44.03;;
42876;SDS011;42341;40.498;72.818;2023-01-16T16:27:47;120.47;;;45.83;;
42876;SDS011;42341;40.498;72.818;2023-01-16T16:30:16;134.85;;;49.33;;
42876;SDS011;42341;40.498;72.818;2023-01-16T16:32:45;156.07;;;54.20;;
42876;SDS011;42341;40.498;72.818;2023-01-16T16:35:16;140.55;;;51.97;;
42876;SDS011;42341;40.498;72.818;2023-01-16T16:37:42;130.85;;;49.63;;
42876;SDS011;42341;40.498;72.818;2023-01-16T16:40:13;122.20;;;43.40;;
42876;SDS011;42341;40.498;72.818;2023-01-16T16:47:41;164.57;;;59.05;;
42876;SDS011;42341;40.498;72.818;2023-01-16T16:52:46;137.07;;;48.67;;
42876;SDS011;42341;40.498;72.818;2023-01-16T16:55:27;114.65;;;42.85;;
42876;SDS011;42341;40.498;72.818;2023-01-16T16:57:54;121.60;;;44.40;;
42876;SDS011;42341;40.498;72.818;2023-01-16T17:00:21;131.55;;;48.45;;
42876;SDS011;42341;40.498;72.818;2023-01-16T17:02:47;134.10;;;49.85;;
42876;SDS011;42341;40.498;72.818;2023-01-16T17:05:15;119.03;;;44.55;;
42876;SDS011;42341;40.498;72.818;2023-01-16T17:07:46;109.10;;;41.53;;
42876;SDS011;42341;40.498;72.818;2023-01-16T17:10:13;96.78;;;34.85;;
42876;SDS011;42341;40.498;72.818;2023-01-16T17:12:39;91.10;;;34.80;;
42876;SDS011;42341;40.498;72.818;2023-01-16T17:15:06;100.28;;;41.47;;
42876;SDS011;42341;40.498;72.818;2023-01-16T17:17:34;108.65;;;40.40;;
42876;SDS011;42341;40.498;72.818;2023-01-16T17:20:00;96.90;;;38.15;;
42876;SDS011;42341;40.498;72.818;2023-01-16T17:22:27;223.60;;;75.82;;
42876;SDS011;42341;40.498;72.818;2023-01-16T17:24:53;177.13;;;67.72;;
42876;SDS011;42341;40.498;72.818;2023-01-16T17:27:19;131.23;;;48.00;;
42876;SDS011;42341;40.498;72.818;2023-01-16T17:29:46;144.82;;;58.80;;
42876;SDS011;42341;40.498;72.818;2023-01-16T17:32:27;360.67;;;143.07;;
42876;SDS011;42341;40.498;72.818;2023-01-16T17:34:57;136.27;;;53.05;;
42876;SDS011;42341;40.498;72.818;2023-01-16T17:37:24;86.32;;;35.70;;
42876;SDS011;42341;40.498;72.818;2023-01-16T17:39:50;89.50;;;35.72;;
42876;SDS011;42341;40.498;72.818;2023-01-16T17:42:16;75.18;;;33.08;;
42876;SDS011;42341;40.498;72.818;2023-01-16T17:44:42;82.53;;;33.78;;
42876;SDS011;42341;40.498;72.818;2023-01-16T17:47:27;88.40;;;38.33;;
42876;SDS011;42341;40.498;72.818;2023-01-16T17:49:53;93.22;;;36.55;;
42876;SDS011;42341;40.498;72.818;2023-01-16T17:52:38;90.97;;;35.58;;
42876;SDS011;42341;40.498;72.818;2023-01-16T17:55:04;96.32;;;35.63;;
42876;SDS011;42341;40.498;72.818;2023-01-16T17:57:49;87.57;;;35.50;;
42876;SDS011;42341;40.498;72.818;2023-01-16T18:00:16;88.60;;;35.60;;
42876;SDS011;42341;40.498;72.818;2023-01-16T18:02:42;96.22;;;37.17;;
42876;SDS011;42341;40.498;72.818;2023-01-16T18:05:10;93.60;;;36.38;;
42876;SDS011;42341;40.498;72.818;2023-01-16T18:07:37;90.95;;;36.55;;
42876;SDS011;42341;40.498;72.818;2023-01-16T18:10:03;84.47;;;33.78;;
42876;SDS011;42341;40.498;72.818;2023-01-16T18:12:29;86.00;;;34.58;;
42876;SDS011;42341;40.498;72.818;2023-01-16T18:15:14;90.80;;;34.35;;
42876;SDS011;42341;40.498;72.818;2023-01-16T18:17:59;95.50;;;32.13;;
42876;SDS011;42341;40.498;72.818;2023-01-16T18:20:25;77.63;;;30.95;;
42876;SDS011;42341;40.498;72.818;2023-01-16T18:22:51;87.63;;;34.55;;
42876;SDS011;42341;40.498;72.818;2023-01-16T18:25:17;85.95;;;33.83;;
42876;SDS011;42341;40.498;72.818;2023-01-16T18:27:43;96.88;;;38.22;;
42876;SDS011;42341;40.498;72.818;2023-01-16T18:30:10;106.65;;;42.42;;
42876;SDS011;42341;40.498;72.818;2023-01-16T18:32:36;122.22;;;47.92;;
42876;SDS011;42341;40.498;72.818;2023-01-16T18:35:06;124.13;;;47.88;;
42876;SDS011;42341;40.498;72.818;2023-01-16T18:37:36;102.10;;;39.10;;
42876;SDS011;42341;40.498;72.818;2023-01-16T18:40:04;99.70;;;39.25;;
42876;SDS011;42341;40.498;72.818;2023-01-16T18:42:49;112.03;;;39.22;;
42876;SDS011;42341;40.498;72.818;2023-01-16T18:45:34;103.40;;;39.35;;
42876;SDS011;42341;40.498;72.818;2023-01-16T18:48:19;91.50;;;35.28;;
42876;SDS011;42341;40.498;72.818;2023-01-16T18:51:07;63.63;;;24.35;;
42876;SDS011;42341;40.498;72.818;2023-01-16T18:53:52;63.85;;;25.05;;
42876;SDS011;42341;40.498;72.818;2023-01-16T18:56:41;67.38;;;27.50;;
42876;SDS011;42341;40.498;72.818;2023-01-16T18:59:26;86.55;;;32.45;;
42876;SDS011;42341;40.498;72.818;2023-01-16T19:04:41;93.32;;;36.47;;
42876;SDS011;42341;40.498;72.818;2023-01-16T19:07:09;103.03;;;38.17;;
42876;SDS011;42341;40.498;72.818;2023-01-16T19:09:37;98.03;;;38.72;;
42876;SDS011;42341;40.498;72.818;2023-01-16T19:12:03;108.32;;;39.50;;
42876;SDS011;42341;40.498;72.818;2023-01-16T19:14:32;161.68;;;55.25;;
42876;SDS011;42341;40.498;72.818;2023-01-16T19:17:00;138.73;;;48.58;;
42876;SDS011;42341;40.498;72.818;2023-01-16T19:19:26;131.00;;;48.15;;
42876;SDS011;42341;40.498;72.818;2023-01-16T19:21:53;104.40;;;38.28;;
42876;SDS011;42341;40.498;72.818;2023-01-16T19:24:19;99.93;;;38.38;;